Time;durP1;ratioP1;P1;durP2;ratioP2;P2;SDS_P1;SDS_P2;PMS_P1;PMS_P2;Temp;Humidity;BMP_temperature;BMP_pressure;BME280_temperature;BME280_humidity;BME280_pressure;Samples;Min_cycle;Max_cycle;Signal;HPM_P1;HPM_P2
2023/09/03 00:00:28;;;;;;;70.83;7.37;;;;;;;23.67;57.51;100142.47;7306181;19;130802;-34
2023/09/03 00:02:54;;;;;;;69.65;7.57;;;;;;;23.68;57.57;100138.88;7304791;19;130130;-35
2023/09/03 00:05:19;;;;;;;94.63;8.63;;;;;;;23.67;57.87;100147.72;7304959;19;129625;-37
2023/09/03 00:07:45;;;;;;;102.97;8.97;;;;;;;23.68;57.63;100143.31;7309219;19;129850;-35
2023/09/03 00:10:10;;;;;;;93.03;8.63;;;;;;;23.67;57.97;100136.41;7306549;19;129883;-36
2023/09/03 00:12:35;;;;;;;70.50;7.63;;;;;;;23.66;58.00;100135.56;7307274;19;128899;-36
2023/09/03 00:15:01;;;;;;;129.40;9.93;;;;;;;23.67;58.10;100147.72;7305584;19;129359;-37
2023/09/03 00:17:27;;;;;;;92.07;8.17;;;;;;;23.65;58.05;100149.66;7308290;19;130080;-36
2023/09/03 00:19:52;;;;;;;56.70;6.63;;;;;;;23.62;57.49;100139.44;7303638;19;131192;-38
2023/09/03 00:22:18;;;;;;;60.37;7.03;;;;;;;23.65;57.96;100141.78;7304151;19;131192;-35
2023/09/03 00:24:43;;;;;;;132.90;10.77;;;;;;;23.65;58.19;100148.84;7304275;19;128917;-35
2023/09/03 00:27:08;;;;;;;87.07;8.37;;;;;;;23.67;57.87;100144.28;7307279;19;129037;-35
2023/09/03 00:29:35;;;;;;;57.27;6.93;;;;;;;23.66;57.83;100151.31;7305457;19;129453;-33
2023/09/03 00:32:01;;;;;;;;;;;;;;;23.68;60.03;100149.38;7306284;19;130198;-36
2023/09/03 00:34:26;;;;;;;92.72;8.02;;;;;;;23.66;58.11;100151.31;7304515;19;130630;-35
2023/09/03 00:36:51;;;;;;;72.73;7.23;;;;;;;23.65;58.27;100148.84;7309443;19;129184;-36
2023/09/03 00:39:18;;;;;;;78.90;7.47;;;;;;;23.64;58.17;100145.38;7306901;19;129750;-35
2023/09/03 00:41:45;;;;;;;76.85;7.47;;;;;;;23.65;58.05;100148.84;7306740;19;129630;-35
2023/09/03 00:44:10;;;;;;;130.00;10.32;;;;;;;23.64;58.08;100148.00;7303238;19;129275;-38
2023/09/03 00:46:36;;;;;;;61.57;6.90;;;;;;;23.64;57.86;100145.38;7306927;19;128931;-38
2023/09/03 00:49:02;;;;;;;139.07;11.47;;;;;;;23.64;58.33;100148.00;7308128;19;131248;-34
2023/09/03 00:51:28;;;;;;;58.70;6.57;;;;;;;23.64;58.17;100148.00;7306411;19;130313;-38
2023/09/03 00:53:55;;;;;;;158.30;11.77;;;;;;;23.66;57.98;100140.81;7306968;19;129189;-37
2023/09/03 00:56:21;;;;;;;78.55;7.72;;;;;;;23.65;58.26;100139.13;7308471;19;129031;-37
2023/09/03 00:58:47;;;;;;;81.60;7.53;;;;;;;23.65;57.91;100143.59;7307109;19;129700;-37
2023/09/03 01:01:13;;;;;;;103.70;9.20;;;;;;;23.65;58.01;100149.66;7303893;19;130436;-38
2023/09/03 01:03:39;;;;;;;114.70;9.18;;;;;;;23.65;58.32;100133.88;7304955;19;129252;-36
2023/09/03 01:06:06;;;;;;;66.37;6.57;;;;;;;23.65;58.16;100133.88;7305569;19;129727;-36
2023/09/03 01:08:31;;;;;;;84.93;8.15;;;;;;;23.65;58.09;100128.63;7304442;19;129590;-34
2023/09/03 01:11:01;;;;;;;93.33;8.40;;;;;;;23.65;58.70;100133.88;7301965;19;129833;-37
2023/09/03 01:13:32;;;;;;;111.53;9.35;;;;;;;23.66;57.59;100134.72;7302443;19;129066;-38
2023/09/03 01:16:03;;;;;;;94.13;8.38;;;;;;;23.54;58.33;100107.81;7302722;19;129989;-35
2023/09/03 01:18:30;;;;;;;62.15;6.50;;;;;;;23.59;57.59;100121.34;7304597;19;131487;-37
2023/09/03 01:21:25;;;;;;;;;;;;;;;23.68;59.96;100133.63;7303224;19;129611;-37
2023/09/03 01:24:14;;;;;;;58.75;6.35;;;;;;;23.65;59.89;100133.88;7300638;19;129834;-37
2023/09/03 01:27:06;;;;;;;62.33;6.78;;;;;;;23.65;59.63;100144.41;7303826;19;129529;-35
2023/09/03 01:29:32;;;;;;;57.90;6.15;;;;;;;23.65;57.86;100139.13;7305136;19;131174;-36
2023/09/03 01:31:59;;;;;;;74.63;7.15;;;;;;;23.63;58.04;100145.50;7304301;19;130746;-38
2023/09/03 01:34:26;;;;;;;105.25;8.25;;;;;;;23.64;57.55;100142.75;7300229;19;129949;-37
2023/09/03 01:36:52;;;;;;;;;;;;;;;23.66;60.03;100140.81;7305386;19;129870;-38
2023/09/03 01:39:17;;;;;;;92.97;7.90;;;;;;;23.64;58.20;100142.75;7304516;19;130975;-34
2023/09/03 01:41:43;;;;;;;66.47;6.47;;;;;;;23.64;57.58;100142.75;7303839;19;129808;-38
2023/09/03 01:44:11;;;;;;;120.90;9.50;;;;;;;23.62;57.98;100147.31;7301287;19;129305;-38
2023/09/03 01:46:49;;;;;;;71.50;6.90;;;;;;;23.52;59.88;100133.34;7303206;19;129649;-37
2023/09/03 01:49:37;;;;;;;117.28;9.98;;;;;;;23.63;59.54;100156.84;7304093;19;130326;-35
2023/09/03 01:52:11;;;;;;;;;;;;;;;23.61;60.09;100148.28;7304103;19;130361;-35
2023/09/03 01:54:40;;;;;;;54.13;5.95;;;;;;;23.65;58.71;100162.78;7303881;19;129331;-38
2023/09/03 01:57:16;;;;;;;90.82;7.93;;;;;;;23.64;58.57;100161.13;7303576;19;129628;-38
2023/09/03 01:59:43;;;;;;;75.43;6.63;;;;;;;23.64;58.67;100155.03;7303668;19;129227;-36
2023/09/03 02:02:10;;;;;;;95.35;7.32;;;;;;;23.51;58.08;100131.72;7304296;19;130440;-37
2023/09/03 02:04:36;;;;;;;54.65;5.90;;;;;;;23.64;57.94;100153.25;7300317;19;129005;-38
2023/09/03 02:07:02;;;;;;;75.13;6.87;;;;;;;23.65;58.53;100144.41;7303682;19;129757;-36
2023/09/03 02:09:27;;;;;;;106.17;8.57;;;;;;;23.65;58.08;100135.72;7299465;19;131417;-34
2023/09/03 02:11:52;;;;;;;63.03;6.53;;;;;;;23.63;57.63;100138.47;7304950;19;130277;-37
2023/09/03 02:14:18;;;;;;;87.85;7.38;;;;;;;23.65;58.08;100130.47;7301818;19;129403;-36
2023/09/03 02:16:43;;;;;;;67.00;6.20;;;;;;;23.65;57.90;100133.09;7303177;19;128908;-32
2023/09/03 02:19:09;;;;;;;73.83;6.63;;;;;;;23.65;58.37;100123.38;7302533;19;129572;-35
2023/09/03 02:21:34;;;;;;;94.77;7.83;;;;;;;23.63;58.12;100117.47;7302952;19;131811;-33
2023/09/03 02:24:00;;;;;;;103.97;9.87;;;;;;;23.64;57.99;100124.38;7300799;19;129460;-37
2023/09/03 02:26:25;;;;;;;64.87;6.33;;;;;;;23.64;57.87;100116.50;7305309;19;129507;-37
2023/09/03 02:28:51;;;;;;;96.97;7.53;;;;;;;23.63;58.42;100122.72;7310410;19;130749;-37
2023/09/03 02:31:16;;;;;;;54.07;5.87;;;;;;;23.65;57.66;100130.47;7308539;19;129268;-38
2023/09/03 02:33:41;;;;;;;91.87;7.63;;;;;;;23.67;58.41;100137.22;7307589;19;129685;-36
2023/09/03 02:36:07;;;;;;;84.70;7.33;;;;;;;23.54;57.63;100112.22;7308940;19;129852;-34
2023/09/03 02:38:32;;;;;;;107.43;8.33;;;;;;;23.66;58.45;100137.34;7310715;19;129001;-38
2023/09/03 02:40:57;;;;;;;64.73;6.13;;;;;;;23.64;58.24;100137.50;7308354;19;129720;-35
2023/09/03 02:43:23;;;;;;;79.53;6.70;;;;;;;23.64;58.14;100141.91;7306982;19;130339;-32
2023/09/03 02:45:49;;;;;;;95.65;7.97;;;;;;;23.64;58.05;100142.75;7309159;19;129457;-35
2023/09/03 02:48:14;;;;;;;87.17;7.70;;;;;;;23.66;57.70;100150.47;7309651;19;129560;-36
2023/09/03 02:50:40;;;;;;;75.67;6.93;;;;;;;23.65;58.23;100144.41;7309616;19;130617;-37
2023/09/03 02:53:05;;;;;;;79.60;7.07;;;;;;;23.54;58.06;100126.19;7308575;19;130471;-38
2023/09/03 02:55:31;;;;;;;105.73;7.83;;;;;;;23.66;58.16;100155.72;7306618;19;130842;-35
2023/09/03 02:57:56;;;;;;;85.60;6.77;;;;;;;23.66;57.94;100156.56;7309785;19;130141;-37
2023/09/03 03:00:23;;;;;;;66.80;6.53;;;;;;;23.66;58.22;100135.56;7307956;19;129774;-34
2023/09/03 03:02:48;;;;;;;86.68;7.40;;;;;;;23.66;57.79;100142.59;7306832;19;129057;-37
2023/09/03 03:05:14;;;;;;;111.10;8.40;;;;;;;23.66;58.24;100138.19;7306356;19;129557;-38
2023/09/03 03:07:44;;;;;;;84.13;6.87;;;;;;;23.65;58.54;100149.66;7307382;19;129469;-38
2023/09/03 03:10:10;;;;;;;73.03;6.43;;;;;;;23.66;58.23;100156.56;7310830;19;130777;-36
2023/09/03 03:12:35;;;;;;;55.60;5.83;;;;;;;23.66;58.34;100146.06;7310122;19;129083;-33
2023/09/03 03:15:01;;;;;;;110.83;8.07;;;;;;;23.65;58.08;100126.03;7307917;19;129377;-36
2023/09/03 03:17:26;;;;;;;75.03;6.33;;;;;;;23.65;57.55;100123.38;7310506;19;129489;-35
2023/09/03 03:19:51;;;;;;;78.53;6.37;;;;;;;23.66;58.27;100130.31;7309207;19;130415;-35
2023/09/03 03:22:17;;;;;;;83.03;7.13;;;;;;;23.66;57.89;100130.31;7307911;19;129692;-36
2023/09/03 03:24:42;;;;;;;79.53;6.43;;;;;;;23.66;58.29;100132.94;7304842;19;129215;-38
2023/09/03 03:27:08;;;;;;;81.23;6.53;;;;;;;23.51;58.71;100118.59;7310973;19;130676;-37
2023/09/03 03:29:34;;;;;;;70.18;6.15;;;;;;;23.67;58.00;100142.47;7307754;19;129683;-34
2023/09/03 03:31:59;;;;;;;73.95;6.25;;;;;;;23.55;57.92;100133.06;7308195;19;129002;-32
2023/09/03 03:34:25;;;;;;;115.17;8.30;;;;;;;23.66;58.34;100156.56;7306322;19;129053;-40
2023/09/03 03:36:51;;;;;;;55.40;5.73;;;;;;;23.62;58.51;100155.19;7307468;19;130867;-37
2023/09/03 03:39:16;;;;;;;82.53;6.33;;;;;;;23.64;58.24;100148.00;7309225;19;129153;-37
2023/09/03 03:41:42;;;;;;;90.13;7.17;;;;;;;23.65;58.75;100146.22;7309153;19;129542;-36
2023/09/03 03:44:07;;;;;;;124.13;8.93;;;;;;;23.65;58.41;100141.78;7305442;19;129014;-38
2023/09/03 03:46:32;;;;;;;48.33;4.70;;;;;;;23.63;58.04;100143.72;7308788;19;129247;-39
2023/09/03 03:48:59;;;;;;;84.07;6.75;;;;;;;23.55;57.39;100130.44;7309185;19;130265;-36
2023/09/03 03:51:25;;;;;;;120.95;8.82;;;;;;;23.65;58.24;100133.88;7303424;19;129227;-39
2023/09/03 03:53:51;;;;;;;114.80;8.53;;;;;;;23.66;58.47;100132.94;7307656;19;128867;-37
2023/09/03 03:56:16;;;;;;;89.00;7.03;;;;;;;23.64;58.53;100121.75;7308627;19;130099;-37
2023/09/03 03:58:43;;;;;;;81.33;6.83;;;;;;;23.65;58.38;100117.34;7308126;19;129786;-38
2023/09/03 04:01:17;;;;;;;99.95;7.45;;;;;;;23.64;58.25;100113.88;7307193;19;129378;-38
2023/09/03 04:03:44;;;;;;;109.10;8.02;;;;;;;23.65;57.83;100112.88;7308531;19;129992;-34
2023/09/03 04:06:10;;;;;;;119.00;9.07;;;;;;;23.64;58.01;100107.78;7306510;19;129837;-35
2023/09/03 04:08:37;;;;;;;62.13;5.33;;;;;;;23.54;58.43;100110.44;7308931;19;129709;-38
2023/09/03 04:11:05;;;;;;;88.50;6.88;;;;;;;23.65;58.23;100133.88;7305753;19;129421;-39
2023/09/03 04:13:31;;;;;;;109.45;7.85;;;;;;;23.63;57.41;100129.75;7306740;19;129335;-37
2023/09/03 04:15:57;;;;;;;88.43;6.80;;;;;;;23.65;57.91;100138.34;7307926;19;130276;-36
2023/09/03 04:18:25;;;;;;;61.97;5.88;;;;;;;23.63;58.27;100138.47;7308421;19;130436;-37
2023/09/03 04:20:55;;;;;;;83.53;6.97;;;;;;;23.64;58.02;100129.63;7305176;19;129094;-36
2023/09/03 04:23:21;;;;;;;120.78;8.43;;;;;;;23.66;58.18;100134.72;7306465;19;129553;-36
2023/09/03 04:25:47;;;;;;;78.50;6.40;;;;;;;23.65;57.84;100131.25;7308979;19;129345;-37
2023/09/03 04:28:12;;;;;;;77.93;6.43;;;;;;;23.62;57.49;100128.94;7307888;19;129497;-37
2023/09/03 04:30:38;;;;;;;85.40;6.50;;;;;;;23.56;58.15;100110.28;7305658;19;129976;-37
2023/09/03 04:33:08;;;;;;;136.25;8.80;;;;;;;23.64;58.00;100121.75;7303594;19;130041;-36
2023/09/03 04:35:34;;;;;;;81.35;6.13;;;;;;;23.63;58.03;100135.00;7304491;19;130998;-38
2023/09/03 04:37:59;;;;;;;76.97;6.20;;;;;;;23.64;58.33;100132.25;7307760;19;130807;-36
2023/09/03 04:40:25;;;;;;;76.53;6.57;;;;;;;23.55;57.56;100125.19;7305316;19;130010;-37
2023/09/03 04:42:50;;;;;;;87.30;6.17;;;;;;;23.65;57.85;100149.66;7306342;19;129327;-38
2023/09/03 04:45:16;;;;;;;75.63;5.93;;;;;;;23.66;58.10;100161.81;7304750;19;129257;-37
2023/09/03 04:47:42;;;;;;;89.63;6.80;;;;;;;23.66;58.67;100164.44;7306102;19;131046;-35
2023/09/03 04:50:08;;;;;;;59.37;5.17;;;;;;;23.63;57.85;100166.50;7302942;19;129577;-38
2023/09/03 04:52:34;;;;;;;92.50;6.93;;;;;;;23.64;58.38;100173.41;7307756;19;129939;-38
2023/09/03 04:54:59;;;;;;;73.63;5.90;;;;;;;23.66;58.34;100176.72;7306628;19;130961;-37
2023/09/03 04:57:25;;;;;;;68.65;6.07;;;;;;;23.63;58.06;100177.00;7305742;19;129452;-36
2023/09/03 04:59:50;;;;;;;78.80;5.93;;;;;;;23.66;57.99;100171.47;7304379;19;129044;-38
2023/09/03 05:02:15;;;;;;;98.60;7.40;;;;;;;23.64;58.38;100183.91;7306226;19;128907;-37
2023/09/03 05:04:40;;;;;;;62.07;5.23;;;;;;;23.64;58.19;100184.75;7301823;19;130013;-39
2023/09/03 05:07:06;;;;;;;72.07;5.57;;;;;;;23.64;57.84;100190.00;7305251;19;130583;-37
2023/09/03 05:09:32;;;;;;;68.57;5.77;;;;;;;23.64;58.03;100192.63;7305342;19;129652;-38
2023/09/03 05:11:58;;;;;;;67.67;5.80;;;;;;;23.64;57.99;100200.50;7306805;19;129266;-38
2023/09/03 05:14:24;;;;;;;62.33;5.50;;;;;;;23.64;57.94;100195.25;7304906;19;130016;-38
2023/09/03 05:16:49;;;;;;;58.75;5.15;;;;;;;23.51;58.12;100175.50;7305505;19;129318;-37
2023/09/03 05:19:14;;;;;;;129.18;8.70;;;;;;;23.62;58.47;100212.94;7305347;19;130395;-35
2023/09/03 05:21:43;;;;;;;74.03;5.87;;;;;;;23.65;58.65;100212.66;7303541;19;129033;-37
2023/09/03 05:24:10;;;;;;;70.18;5.85;;;;;;;23.64;58.51;100218.88;7303859;19;130239;-37
2023/09/03 05:26:35;;;;;;;65.90;5.75;;;;;;;23.63;58.71;100219.84;7306881;19;130961;-37
2023/09/03 05:29:01;;;;;;;125.73;8.43;;;;;;;23.63;58.09;100217.22;7299654;19;128838;-39
2023/09/03 05:31:27;;;;;;;86.50;6.53;;;;;;;23.65;58.40;100212.66;7301113;19;130086;-37
2023/09/03 05:33:52;;;;;;;120.47;9.17;;;;;;;23.66;58.22;100209.06;7301611;19;130228;-33
2023/09/03 05:36:18;;;;;;;91.53;6.63;;;;;;;23.53;58.62;100195.41;7302954;19;130559;-38
2023/09/03 05:38:43;;;;;;;97.40;6.67;;;;;;;23.62;58.38;100202.44;7306578;19;129005;-41
2023/09/03 05:41:09;;;;;;;37.20;4.03;;;;;;;23.62;58.06;100215.56;7304799;19;130327;-36
2023/09/03 05:43:36;;;;;;;106.67;7.80;;;;;;;23.64;58.25;100226.75;7299223;19;129556;-39
2023/09/03 05:46:02;;;;;;;99.30;7.40;;;;;;;23.65;57.79;100225.78;7300325;19;130281;-37
2023/09/03 05:48:28;;;;;;;106.90;7.57;;;;;;;23.64;58.23;100234.63;7303476;19;129642;-36
2023/09/03 05:51:04;;;;;;;92.93;6.43;;;;;;;23.64;59.83;100232.00;7300438;19;129772;-38
2023/09/03 05:53:30;;;;;;;68.20;5.60;;;;;;;23.63;57.96;100234.78;7303748;19;130766;-34
2023/09/03 05:56:05;;;;;;;85.78;6.68;;;;;;;23.55;58.86;100216.25;7301340;19;130559;-34
2023/09/03 05:58:32;;;;;;;106.25;7.65;;;;;;;23.64;58.36;100231.16;7302658;19;128930;-38
2023/09/03 06:00:59;;;;;;;86.53;6.35;;;;;;;23.63;58.12;100238.22;7304680;19;129619;-36
2023/09/03 06:03:24;;;;;;;95.00;6.87;;;;;;;23.63;57.79;100235.59;7307389;19;130269;-36
2023/09/03 06:05:49;;;;;;;75.87;6.13;;;;;;;23.63;58.30;100235.59;7304758;19;131845;-37
2023/09/03 06:08:15;;;;;;;143.95;9.93;;;;;;;23.63;58.43;100240.03;7310416;19;131640;-36
2023/09/03 06:10:43;;;;;;;89.63;6.90;;;;;;;23.65;58.53;100240.72;7309287;19;128928;-36
2023/09/03 06:13:09;;;;;;;98.07;6.90;;;;;;;23.62;58.05;100244.44;7317812;19;130707;-35
2023/09/03 06:15:34;;;;;;;80.30;6.10;;;;;;;23.64;58.38;100252.16;7306328;19;130115;-38
2023/09/03 06:18:00;;;;;;;123.40;8.07;;;;;;;23.62;58.38;100249.69;7308960;19;129684;-37
2023/09/03 06:20:25;;;;;;;115.30;8.20;;;;;;;23.52;58.20;100235.72;7305392;19;131487;-39
2023/09/03 06:22:51;;;;;;;109.53;7.80;;;;;;;23.63;58.10;100256.59;7307420;19;129858;-37
2023/09/03 06:25:17;;;;;;;75.47;5.67;;;;;;;23.53;58.24;100234.78;7296496;19;132560;-34
2023/09/03 06:27:43;;;;;;;92.97;6.60;;;;;;;23.63;58.04;100255.78;7304037;19;129647;-38
2023/09/03 06:30:09;;;;;;;96.63;7.00;;;;;;;23.61;58.80;100258.53;7308786;19;129381;-36
2023/09/03 06:32:35;;;;;;;79.10;5.97;;;;;;;23.64;58.48;100253.00;7309719;19;129880;-38
2023/09/03 06:35:02;;;;;;;100.47;7.70;;;;;;;23.63;57.95;100261.84;7303868;19;131364;-38
2023/09/03 06:37:27;;;;;;;;;;;;;;;23.66;60.00;100260.75;7298607;19;130962;-38
2023/09/03 06:39:53;;;;;;;109.25;7.40;;;;;;;23.63;58.38;100271.53;7304765;19;129305;-36
2023/09/03 06:42:18;;;;;;;121.63;8.43;;;;;;;23.63;58.64;100282.84;7306374;19;130137;-34
2023/09/03 06:44:44;;;;;;;89.13;6.47;;;;;;;23.63;58.13;100282.03;7300761;19;133334;-33
2023/09/03 06:47:09;;;;;;;151.93;9.63;;;;;;;23.55;58.52;100285.31;7306365;19;129703;-36
2023/09/03 06:49:34;;;;;;;84.27;6.17;;;;;;;23.62;58.02;100306.63;7306970;19;129524;-38
2023/09/03 06:52:00;;;;;;;107.53;7.70;;;;;;;23.51;58.46;100299.69;7305751;19;130591;-36
2023/09/03 06:54:25;;;;;;;65.07;5.33;;;;;;;23.64;58.62;100325.66;7306654;19;129913;-34
2023/09/03 06:56:51;;;;;;;124.17;8.20;;;;;;;23.64;58.19;100331.75;7306742;19;129835;-34
2023/09/03 06:59:16;;;;;;;81.60;6.33;;;;;;;23.64;58.10;100336.16;7308802;19;130238;-37
2023/09/03 07:01:41;;;;;;;78.50;5.97;;;;;;;23.66;58.31;100335.09;7308318;19;130195;-36
2023/09/03 07:04:07;;;;;;;98.20;6.83;;;;;;;23.66;58.67;100339.50;7305164;19;130625;-33
2023/09/03 07:06:33;;;;;;;85.07;6.20;;;;;;;23.65;58.07;100346.53;7307065;19;129476;-38
2023/09/03 07:08:59;;;;;;;91.15;6.50;;;;;;;23.66;58.33;100347.38;7303634;19;131146;-39
2023/09/03 07:11:24;;;;;;;70.07;5.43;;;;;;;23.64;58.59;100339.63;7301438;19;130276;-36
2023/09/03 07:13:50;;;;;;;121.13;7.90;;;;;;;23.64;58.66;100355.38;7304158;19;130789;-38
2023/09/03 07:16:15;;;;;;;87.30;6.37;;;;;;;23.64;58.86;100346.66;7307479;19;129768;-38
2023/09/03 07:18:40;;;;;;;69.83;5.40;;;;;;;23.65;58.66;100354.41;7307382;19;129526;-36
2023/09/03 07:21:07;;;;;;;129.67;9.70;;;;;;;23.63;58.51;100353.75;7300591;19;130404;-38
2023/09/03 07:23:32;;;;;;;109.13;7.13;;;;;;;23.60;58.50;100340.84;7303878;19;131031;-34
2023/09/03 07:26:05;;;;;;;188.03;12.67;;;;;;;23.62;60.18;100331.06;7301091;19;129685;-38
2023/09/03 07:28:31;;;;;;;121.43;8.43;;;;;;;23.63;58.92;100332.75;7299550;19;130294;-38
2023/09/03 07:30:57;;;;;;;123.80;8.63;;;;;;;23.64;58.67;100334.38;7292576;19;129737;-36
2023/09/03 07:33:22;;;;;;;139.80;9.37;;;;;;;23.51;58.38;100323.31;7294470;19;130536;-36
2023/09/03 07:35:48;;;;;;;88.53;6.17;;;;;;;23.63;58.94;100348.50;7306597;19;129584;-35
2023/09/03 07:38:13;;;;;;;92.27;6.20;;;;;;;23.63;58.89;100351.13;7306884;19;129329;-36
2023/09/03 07:40:38;;;;;;;111.30;8.53;;;;;;;23.65;58.60;100348.34;7302158;19;129162;-40
2023/09/03 07:43:04;;;;;;;130.60;8.60;;;;;;;23.64;58.92;100342.25;7301398;19;129990;-33
2023/09/03 07:45:29;;;;;;;73.53;5.97;;;;;;;23.62;58.78;100341.56;7302912;19;128974;-39
2023/09/03 07:47:55;;;;;;;94.57;7.60;;;;;;;23.62;58.63;100346.81;7304570;19;129760;-35
2023/09/03 07:50:20;;;;;;;76.57;6.80;;;;;;;23.63;59.01;100342.41;7304243;19;129594;-32
2023/09/03 07:52:45;;;;;;;100.88;7.15;;;;;;;23.63;59.09;100340.63;7301393;19;131140;-38
2023/09/03 07:55:11;;;;;;;112.63;8.30;;;;;;;23.62;58.31;100348.63;7302964;19;130302;-34
2023/09/03 07:57:36;;;;;;;76.83;6.33;;;;;;;23.63;59.22;100355.53;7299362;19;129683;-37
2023/09/03 08:00:02;;;;;;;62.97;5.23;;;;;;;23.64;59.14;100358.00;7306440;19;129848;-38
2023/09/03 08:02:29;;;;;;;100.35;7.45;;;;;;;23.64;59.53;100367.69;7307906;19;130506;-37
2023/09/03 08:04:54;;;;;;;77.40;6.55;;;;;;;23.65;58.58;100375.41;7306161;19;128926;-36
2023/09/03 08:07:20;;;;;;;86.77;6.73;;;;;;;23.62;58.31;100370.44;7305242;19;130639;-36
2023/09/03 08:09:45;;;;;;;95.77;7.23;;;;;;;23.63;58.86;100376.53;7304378;19;130181;-36
2023/09/03 08:12:11;;;;;;;83.53;6.50;;;;;;;23.63;59.04;100372.13;7300473;19;130899;-36
2023/09/03 08:14:37;;;;;;;98.43;7.50;;;;;;;23.62;58.93;100370.44;7297327;19;131047;-36
2023/09/03 08:17:03;;;;;;;;;;;;;;;23.65;60.80;100380.66;7302505;19;129958;-38
2023/09/03 08:19:28;;;;;;;82.78;6.80;;;;;;;23.63;58.72;100382.63;7307485;19;129568;-34
2023/09/03 08:21:54;;;;;;;130.73;8.90;;;;;;;23.64;59.13;100393.94;7302268;19;130103;-36
2023/09/03 08:24:19;;;;;;;130.70;9.80;;;;;;;23.63;58.69;100387.88;7299464;19;130779;-39
2023/09/03 08:26:45;;;;;;;88.50;6.53;;;;;;;23.62;58.96;100391.44;7304322;19;129064;-36
2023/09/03 08:29:11;;;;;;;145.77;9.97;;;;;;;23.63;58.88;100393.13;7293833;19;130679;-37
2023/09/03 08:31:36;;;;;;;144.55;10.18;;;;;;;23.63;58.96;100387.88;7291370;19;132709;-37
2023/09/03 08:34:03;;;;;;;169.20;12.50;;;;;;;23.64;58.89;100394.78;7290855;19;129398;-38
2023/09/03 08:36:28;;;;;;;86.80;6.40;;;;;;;23.62;58.68;100386.19;7295145;19;129942;-36
2023/09/03 08:38:54;;;;;;;111.97;7.60;;;;;;;23.63;58.54;100385.25;7299394;19;132273;-38
2023/09/03 08:41:22;;;;;;;97.43;7.30;;;;;;;23.61;59.12;100389.78;7303781;19;130816;-37
2023/09/03 08:43:49;;;;;;;120.32;8.45;;;;;;;23.62;59.31;100396.69;7306714;19;129187;-38
2023/09/03 08:46:17;;;;;;;86.90;6.97;;;;;;;23.62;58.52;100396.69;7299354;19;130559;-37
2023/09/03 08:48:43;;;;;;;103.65;7.18;;;;;;;23.63;58.53;100398.38;7306434;19;130672;-36
2023/09/03 08:51:10;;;;;;;90.15;6.53;;;;;;;23.63;58.22;100398.38;7303337;19;130501;-38
2023/09/03 08:53:36;;;;;;;116.90;8.32;;;;;;;23.63;59.13;100405.41;7304665;19;130218;-38
2023/09/03 08:56:02;;;;;;;89.75;6.97;;;;;;;23.52;58.46;100384.50;7297673;19;128986;-36
2023/09/03 08:58:27;;;;;;;141.80;9.27;;;;;;;23.63;59.10;100403.63;7292530;19;130912;-37
2023/09/03 09:00:55;;;;;;;121.90;8.20;;;;;;;23.63;59.11;100414.13;7293697;19;129591;-35
2023/09/03 09:03:24;;;;;;;120.95;8.43;;;;;;;23.63;59.28;100408.88;7294037;19;131098;-37
2023/09/03 09:05:51;;;;;;;85.93;6.13;;;;;;;23.63;58.71;100408.03;7295865;19;130661;-33
2023/09/03 09:08:17;;;;;;;112.60;7.93;;;;;;;23.64;58.27;100415.78;7303189;19;130279;-38
2023/09/03 09:10:47;;;;;;;117.27;8.00;;;;;;;23.61;58.50;100421.28;7296091;19;129269;-38
2023/09/03 09:13:16;;;;;;;102.35;7.38;;;;;;;23.61;58.90;100426.53;7299754;19;129652;-41
2023/09/03 09:15:43;;;;;;;89.15;7.00;;;;;;;23.62;59.02;100428.19;7296890;19;130282;-34
2023/09/03 09:18:09;;;;;;;124.68;8.60;;;;;;;23.61;58.62;100437.03;7293466;19;130733;-36
2023/09/03 09:20:38;;;;;;;160.47;10.23;;;;;;;23.61;59.74;100428.31;7295769;19;130259;-37
2023/09/03 09:23:04;;;;;;;99.15;6.75;;;;;;;23.62;59.17;100433.44;7301258;19;129165;-37
2023/09/03 09:25:29;;;;;;;93.63;7.00;;;;;;;23.63;59.07;100422.00;7295027;19;130068;-44
2023/09/03 09:27:56;;;;;;;96.57;6.67;;;;;;;23.66;58.52;100419.09;7296242;19;130885;-36
2023/09/03 09:30:25;;;;;;;80.95;6.05;;;;;;;23.66;59.26;100424.34;7301686;19;131006;-38
2023/09/03 09:33:03;;;;;;;84.80;6.63;;;;;;;23.67;60.22;100412.06;7304375;19;129041;-39
2023/09/03 09:35:28;;;;;;;94.95;7.10;;;;;;;23.68;58.44;100422.44;7295898;19;130039;-37
2023/09/03 09:37:54;;;;;;;66.90;5.57;;;;;;;23.66;58.58;100418.25;7300113;19;130295;-32
2023/09/03 09:40:27;;;;;;;112.43;7.20;;;;;;;23.68;59.32;100414.56;7302836;19;129101;-38
2023/09/03 09:42:55;;;;;;;134.65;8.85;;;;;;;23.73;58.83;100420.25;7300220;19;130521;-39
2023/09/03 09:45:21;;;;;;;71.15;5.50;;;;;;;23.73;58.40;100404.47;7293417;19;130179;-38
2023/09/03 09:47:47;;;;;;;119.97;8.67;;;;;;;23.77;58.46;100405.84;7295056;19;130847;-34
2023/09/03 09:50:12;;;;;;;137.63;9.20;;;;;;;23.77;58.37;100405.03;7288482;19;129479;-36
2023/09/03 09:52:38;;;;;;;86.33;6.40;;;;;;;23.79;58.45;100408.34;7299087;19;129165;-37
2023/09/03 09:55:04;;;;;;;117.17;8.67;;;;;;;23.77;57.92;100405.84;7299042;19;130153;-38
2023/09/03 09:57:30;;;;;;;94.85;7.38;;;;;;;23.75;58.07;100407.78;7297337;19;133404;-38
2023/09/03 09:59:59;;;;;;;95.97;6.63;;;;;;;23.76;58.28;100404.22;7298205;19;130152;-36
2023/09/03 10:02:25;;;;;;;139.80;9.27;;;;;;;23.77;58.35;100399.78;7297462;19;130107;-35
2023/09/03 10:04:53;;;;;;;100.00;7.67;;;;;;;23.78;58.31;100412.78;7295839;19;130283;-39
2023/09/03 10:07:18;;;;;;;55.10;4.68;;;;;;;23.79;58.34;100417.06;7297688;19;129691;-37
2023/09/03 10:09:45;;;;;;;127.57;8.43;;;;;;;23.76;57.57;100414.72;7301519;19;130793;-38
2023/09/03 10:12:11;;;;;;;195.50;12.55;;;;;;;23.77;58.56;100421.63;7295572;19;129946;-36
2023/09/03 10:14:37;;;;;;;96.72;6.97;;;;;;;23.76;58.50;100409.47;7295619;19;130580;-34
2023/09/03 10:17:04;;;;;;;66.07;5.50;;;;;;;23.64;58.29;100393.94;7298866;19;129671;-36
2023/09/03 10:20:04;;;;;;;117.03;8.05;;;;;;;23.78;59.84;100422.47;7301798;19;129744;-37
2023/09/03 10:22:31;;;;;;;88.75;6.32;;;;;;;23.75;58.57;100418.28;7297633;19;130782;-35
2023/09/03 10:25:04;;;;;;;130.50;8.57;;;;;;;23.75;58.42;100423.53;7293908;19;130805;-35
2023/09/03 10:27:35;;;;;;;145.55;9.35;;;;;;;23.74;58.33;100419.25;7294046;19;130823;-34
2023/09/03 10:30:05;;;;;;;38.58;3.58;;;;;;;23.74;58.25;100414.00;7298956;19;130270;-36
2023/09/03 10:32:32;;;;;;;103.40;6.97;;;;;;;23.72;57.79;100413.31;7304867;19;129498;-36
2023/09/03 10:34:58;;;;;;;76.32;5.55;;;;;;;23.73;57.67;100414.16;7303784;19;129550;-37
2023/09/03 10:37:50;;;;;;;156.27;10.17;;;;;;;23.61;59.49;100399.44;7299348;19;129447;-42
2023/09/03 10:40:23;;;;;;;117.00;7.50;;;;;;;23.73;58.77;100424.66;7294894;19;130452;-38
2023/09/03 10:42:54;;;;;;;81.32;5.65;;;;;;;23.73;58.55;100415.00;7299879;19;129488;-39
2023/09/03 10:45:20;;;;;;;125.03;8.70;;;;;;;23.71;57.77;100423.94;7296383;19;130918;-39
2023/09/03 10:48:02;;;;;;;74.47;5.40;;;;;;;23.71;58.99;100418.69;7300105;19;129693;-37
2023/09/03 10:50:44;;;;;;;70.60;4.90;;;;;;;23.71;59.19;100410.81;7305932;19;130339;-35
2023/09/03 10:53:29;;;;;;;67.85;4.88;;;;;;;23.70;57.81;100415.22;7306513;19;130332;-36
2023/09/03 10:56:08;;;;;;;78.57;5.30;;;;;;;23.73;58.95;100420.25;7308501;19;130755;-40
2023/09/03 10:58:33;;;;;;;113.85;7.18;;;;;;;23.74;58.20;100423.66;7311200;19;130584;-38
2023/09/03 11:01:26;;;;;;;75.67;4.97;;;;;;;23.74;59.16;100427.13;7308701;19;130836;-35
2023/09/03 11:03:53;;;;;;;116.55;7.47;;;;;;;23.73;57.45;100422.88;7310278;19;130456;-38
2023/09/03 11:06:21;;;;;;;80.38;5.70;;;;;;;23.72;57.35;100423.81;7306960;19;131082;-33